Maiko — JD2630 — position and weather

sailwx.info

Track history (hours):
 
Tides and Currents Weather Stations Pressure Air Temp Water Temp Dewpoint Dewpoint Depression Visibility Wind Speed Wind Dir Waves Ship Positions

Maiko

Last reported at 2017-Oct-22 08:00 UTC. Time now 2017-Oct-22 08:11 UTC.
Position N 35°24' E 139°45'.

Length 85 m; draft 3.6 m.

Type: Cargo ship. MMSI: 431000527.

Date/timePositionNaut miles runAvg speedWind from/ knotsBaromVisibWave heightAir tempDewpointWater temp
2017-Oct-22 08:00N 35°24' E 139°45'0 0.0
2017-Oct-22 07:30N 35°24' E 139°45'0 0.1
2017-Oct-22 07:00N 35°24' E 139°45'0 0.1
2017-Oct-22 06:30N 35°24' E 139°45'0 0.1
2017-Oct-22 06:00N 35°24' E 139°45'0 0.0
2017-Oct-22 05:30N 35°24' E 139°45'0 0.1
2017-Oct-22 05:01N 35°24' E 139°45'1 1.2
2017-Oct-22 04:30N 35°24' E 139°45'611.6
2017-Oct-22 04:00N 35°28' E 139°39'1 1.1
2017-Oct-22 03:29N 35°29' E 139°39'0 0.0
2017-Oct-22 02:59N 35°29' E 139°39'0 0.0
2017-Oct-22 02:29N 35°29' E 139°39'0 0.0
2017-Oct-22 01:59N 35°29' E 139°39'0 0.0
2017-Oct-22 01:29N 35°29' E 139°39'0 0.0
2017-Oct-22 00:56N 35°29' E 139°39'0 0.0
2017-Oct-22 00:29N 35°29' E 139°39'0 0.0
2017-Oct-21 23:59N 35°29' E 139°39'0 0.0
2017-Oct-21 23:30N 35°29' E 139°39'2 4.0
2017-Oct-21 23:00N 35°27' E 139°41'4 8.2
2017-Oct-21 22:30N 35°24' E 139°44'1 1.1
2017-Oct-21 21:58N 35°24' E 139°44'0 0.0
2017-Oct-21 21:28N 35°24' E 139°44'0 0.0
2017-Oct-21 20:58N 35°24' E 139°44'0 0.0
2017-Oct-21 20:25N 35°24' E 139°44'0 0.1
2017-Oct-21 19:58N 35°24' E 139°44'0 0.0
2017-Oct-21 19:28N 35°24' E 139°44'0 0.0
2017-Oct-21 18:58N 35°24' E 139°44'0 0.0
2017-Oct-21 18:28N 35°24' E 139°44'0 0.0
2017-Oct-21 17:58N 35°24' E 139°44'0 0.0
2017-Oct-21 17:28N 35°24' E 139°44'0 0.0
2017-Oct-21 16:55N 35°24' E 139°44'0 0.0
2017-Oct-21 16:28N 35°24' E 139°44'0 0.0
2017-Oct-21 15:58N 35°24' E 139°44'0 0.0
2017-Oct-21 15:28N 35°24' E 139°44'0 0.1
2017-Oct-21 14:58N 35°24' E 139°44'0 0.0
2017-Oct-21 14:25N 35°24' E 139°44'0 0.1
2017-Oct-21 13:28N 35°24' E 139°44'0 0.1
2017-Oct-21 12:58N 35°24' E 139°44'0 0.0
2017-Oct-21 12:28N 35°24' E 139°44'0 0.0
2017-Oct-21 11:55N 35°24' E 139°44'0 0.0
2017-Oct-21 11:28N 35°24' E 139°44'0 0.0
2017-Oct-21 10:58N 35°24' E 139°44'0 0.0
2017-Oct-21 10:28N 35°24' E 139°44'0 0.0
2017-Oct-21 09:52N 35°24' E 139°44'0 0.1
2017-Oct-21 09:28N 35°24' E 139°44'0 0.0
2017-Oct-21 08:58N 35°24' E 139°44'0 0.0
2017-Oct-21 08:28N 35°24' E 139°44'2 5.2
2017-Oct-21 08:00N 35°23' E 139°41'1 1.7
2017-Oct-21 07:27N 35°24' E 139°41'0 0.0
2017-Oct-21 07:00N 35°24' E 139°41'0 0.0
2017-Oct-21 06:30N 35°24' E 139°41'0 0.0
2017-Oct-21 06:00N 35°24' E 139°41'0 0.0
2017-Oct-21 05:30N 35°24' E 139°41'4 7.5
2017-Oct-21 05:00N 35°21' E 139°42'612.0
2017-Oct-21 04:30N 35°16' E 139°47'611.2
2017-Oct-21 04:00N 35°10' E 139°46'511.0
2017-Oct-21 03:30N 35°05' E 139°44'510.6
2017-Oct-21 03:00N 35°01' E 139°39'612.3
2017-Oct-21 02:30N 34°58' E 139°33'  
2017-Oct-18 03:21N 34°58' E 139°26'411.0
2017-Oct-18 02:58N 35°00' E 139°30'612.2
2017-Oct-18 02:30N 35°04' E 139°36'713.6
2017-Oct-18 02:00N 35°08' E 139°43'713.4
2017-Oct-18 01:30N 35°14' E 139°46'611.9
2017-Oct-18 01:01N 35°19' E 139°43'510.9
2017-Oct-18 00:30N 35°24' E 139°41'0 0.1
2017-Oct-18 00:00N 35°24' E 139°41'0 0.0
2017-Oct-17 23:27N 35°24' E 139°41'1 2.6
2017-Oct-17 23:00N 35°23' E 139°40'0 0.2
2017-Oct-17 22:30N 35°23' E 139°40'0 0.1
2017-Oct-17 22:00N 35°23' E 139°40'0 0.0
2017-Oct-17 21:30N 35°23' E 139°40'0 0.0
2017-Oct-17 21:00N 35°23' E 139°40'0 0.0
2017-Oct-17 20:30N 35°23' E 139°40'0 0.0
2017-Oct-17 20:00N 35°23' E 139°40'0 0.0
2017-Oct-17 19:30N 35°23' E 139°40'0 0.1
2017-Oct-17 19:00N 35°23' E 139°40'0 0.0
2017-Oct-17 18:30N 35°23' E 139°40'0 0.0
2017-Oct-17 18:00N 35°23' E 139°40'0 0.0
2017-Oct-17 17:30N 35°23' E 139°40'0 0.0
2017-Oct-17 17:00N 35°23' E 139°40'0 0.1
2017-Oct-17 16:30N 35°23' E 139°40'0 0.0
2017-Oct-17 16:00N 35°23' E 139°40'0 0.0
2017-Oct-17 15:30N 35°23' E 139°40'0 0.0
2017-Oct-17 15:00N 35°23' E 139°40'0 0.0
2017-Oct-17 14:30N 35°23' E 139°40'0 0.0
2017-Oct-17 14:00N 35°23' E 139°40'0 0.0
2017-Oct-17 13:30N 35°23' E 139°40'0 0.0
2017-Oct-17 13:00N 35°23' E 139°40'0 0.0
2017-Oct-17 12:27N 35°23' E 139°40'0 0.0
2017-Oct-17 11:57N 35°23' E 139°40'0 0.0
2017-Oct-17 11:30N 35°23' E 139°40'0 0.0
2017-Oct-17 11:00N 35°23' E 139°40'0 0.0
2017-Oct-17 10:27N 35°23' E 139°40'0 0.1
2017-Oct-17 10:00N 35°23' E 139°40'0 0.0
2017-Oct-17 09:30N 35°23' E 139°40'0 0.0
2017-Oct-17 09:00N 35°23' E 139°40'0 0.0
2017-Oct-17 08:30N 35°23' E 139°40'0 0.0
2017-Oct-17 08:00N 35°23' E 139°40'0 0.0
2017-Oct-17 07:30N 35°23' E 139°40'0 0.0
2017-Oct-17 07:00N 35°23' E 139°40'0 0.0
2017-Oct-17 06:30N 35°23' E 139°40'0 0.0
2017-Oct-17 06:00N 35°23' E 139°40'0 0.0
2017-Oct-17 05:30N 35°23' E 139°40'0 0.0
2017-Oct-17 04:57N 35°23' E 139°40'0 0.0
2017-Oct-17 04:30N 35°23' E 139°40'0 0.1
2017-Oct-17 04:00N 35°23' E 139°40'1 2.3
2017-Oct-17 03:31N 35°23' E 139°41'3 6.1
2017-Oct-17 03:00N 35°20' E 139°43'5 9.9
2017-Oct-17 02:30N 35°16' E 139°46'510.0
2017-Oct-17 02:00N 35°11' E 139°46'5 9.4
2017-Oct-17 01:30N 35°07' E 139°44'5 9.8
2017-Oct-17 01:00N 35°03' E 139°41'510.5
2017-Oct-17 00:30N 34°60' E 139°35'611.6
2017-Oct-17 00:00N 34°57' E 139°29'  
2017-Oct-14 16:28N 34°56' E 139°22'611.7
2017-Oct-14 16:00N 34°60' E 139°28'611.4
2017-Oct-14 15:30N 35°03' E 139°33'612.3
2017-Oct-14 15:00N 35°06' E 139°40'612.4
2017-Oct-14 14:30N 35°11' E 139°45'611.4
2017-Oct-14 14:00N 35°17' E 139°45'611.2
2017-Oct-14 13:30N 35°22' E 139°43'1 1.3
2017-Oct-14 12:58N 35°22' E 139°44'0 0.1
2017-Oct-14 12:25N 35°22' E 139°44'0 0.1
2017-Oct-14 11:58N 35°22' E 139°44'0 0.1
2017-Oct-14 11:28N 35°22' E 139°44'0 0.0
2017-Oct-14 10:58N 35°22' E 139°44'0 0.0
2017-Oct-14 10:28N 35°22' E 139°44'0 0.0
2017-Oct-14 09:55N 35°22' E 139°44'0 0.1
2017-Oct-14 09:25N 35°22' E 139°44'0 0.0
2017-Oct-14 08:58N 35°22' E 139°44'0 0.0
2017-Oct-14 08:28N 35°22' E 139°44'3 6.8
2017-Oct-14 08:01N 35°24' E 139°41'0 0.2
2017-Oct-14 07:29N 35°24' E 139°41'0 0.0
2017-Oct-14 06:56N 35°24' E 139°41'0 0.0
2017-Oct-14 06:29N 35°24' E 139°41'0 0.0
2017-Oct-14 05:59N 35°24' E 139°41'0 0.0
2017-Oct-14 05:29N 35°24' E 139°41'0 0.0
2017-Oct-14 05:01N 35°24' E 139°41'4 8.8
2017-Oct-14 04:31N 35°20' E 139°43'611.8
2017-Oct-14 04:00N 35°15' E 139°47'611.9
2017-Oct-14 03:31N 35°09' E 139°46'612.7
2017-Oct-14 03:00N 35°04' E 139°41'713.3
2017-Oct-14 02:31N 35°00' E 139°34'814.5
2017-Oct-14 01:57N 34°55' E 139°27'226 5.6
2017-Oct-12 09:39N 34°02' E 134°60'313.4
2017-Oct-12 09:26N 34°05' E 134°60'613.2
2017-Oct-12 08:59N 34°11' E 134°59'713.4
2017-Oct-12 08:28N 34°18' E 134°59'  
Track history (hours):
 
Tides and Currents Weather Stations Pressure Air Temp Water Temp Dewpoint Dewpoint Depression Visibility Wind Speed Wind Dir Waves Ship Positions

Maiko

Last reported at 2017-Oct-22 08:00 UTC. Time now 2017-Oct-22 08:11 UTC.
Position N 35°24' E 139°45'.

Length 85 m; draft 3.6 m.

Type: Cargo ship. MMSI: 431000527.

Date/timePositionNaut miles runAvg speedWind from/ knotsBaromVisibWave heightAir tempDewpointWater temp
2017-Oct-22 08:00N 35°24' E 139°45'0 0.0
2017-Oct-22 07:30N 35°24' E 139°45'0 0.1
2017-Oct-22 07:00N 35°24' E 139°45'0 0.1
2017-Oct-22 06:30N 35°24' E 139°45'0 0.1
2017-Oct-22 06:00N 35°24' E 139°45'0 0.0
2017-Oct-22 05:30N 35°24' E 139°45'0 0.1
2017-Oct-22 05:01N 35°24' E 139°45'1 1.2
2017-Oct-22 04:30N 35°24' E 139°45'611.6
2017-Oct-22 04:00N 35°28' E 139°39'1 1.1
2017-Oct-22 03:29N 35°29' E 139°39'0 0.0
2017-Oct-22 02:59N 35°29' E 139°39'0 0.0
2017-Oct-22 02:29N 35°29' E 139°39'0 0.0
2017-Oct-22 01:59N 35°29' E 139°39'0 0.0
2017-Oct-22 01:29N 35°29' E 139°39'0 0.0
2017-Oct-22 00:56N 35°29' E 139°39'0 0.0
2017-Oct-22 00:29N 35°29' E 139°39'0 0.0
2017-Oct-21 23:59N 35°29' E 139°39'0 0.0
2017-Oct-21 23:30N 35°29' E 139°39'2 4.0
2017-Oct-21 23:00N 35°27' E 139°41'4 8.2
2017-Oct-21 22:30N 35°24' E 139°44'1 1.1
2017-Oct-21 21:58N 35°24' E 139°44'0 0.0
2017-Oct-21 21:28N 35°24' E 139°44'0 0.0
2017-Oct-21 20:58N 35°24' E 139°44'0 0.0
2017-Oct-21 20:25N 35°24' E 139°44'0 0.1
2017-Oct-21 19:58N 35°24' E 139°44'0 0.0
2017-Oct-21 19:28N 35°24' E 139°44'0 0.0
2017-Oct-21 18:58N 35°24' E 139°44'0 0.0
2017-Oct-21 18:28N 35°24' E 139°44'0 0.0
2017-Oct-21 17:58N 35°24' E 139°44'0 0.0
2017-Oct-21 17:28N 35°24' E 139°44'0 0.0
2017-Oct-21 16:55N 35°24' E 139°44'0 0.0
2017-Oct-21 16:28N 35°24' E 139°44'0 0.0
2017-Oct-21 15:58N 35°24' E 139°44'0 0.0
2017-Oct-21 15:28N 35°24' E 139°44'0 0.1
2017-Oct-21 14:58N 35°24' E 139°44'0 0.0
2017-Oct-21 14:25N 35°24' E 139°44'0 0.1
2017-Oct-21 13:28N 35°24' E 139°44'0 0.1
2017-Oct-21 12:58N 35°24' E 139°44'0 0.0
2017-Oct-21 12:28N 35°24' E 139°44'0 0.0
2017-Oct-21 11:55N 35°24' E 139°44'0 0.0
2017-Oct-21 11:28N 35°24' E 139°44'0 0.0
2017-Oct-21 10:58N 35°24' E 139°44'0 0.0
2017-Oct-21 10:28N 35°24' E 139°44'0 0.0
2017-Oct-21 09:52N 35°24' E 139°44'0 0.1
2017-Oct-21 09:28N 35°24' E 139°44'0 0.0
2017-Oct-21 08:58N 35°24' E 139°44'0 0.0
2017-Oct-21 08:28N 35°24' E 139°44'2 5.2
2017-Oct-21 08:00N 35°23' E 139°41'1 1.7
2017-Oct-21 07:27N 35°24' E 139°41'0 0.0
2017-Oct-21 07:00N 35°24' E 139°41'0 0.0
2017-Oct-21 06:30N 35°24' E 139°41'0 0.0
2017-Oct-21 06:00N 35°24' E 139°41'0 0.0
2017-Oct-21 05:30N 35°24' E 139°41'4 7.5
2017-Oct-21 05:00N 35°21' E 139°42'612.0
2017-Oct-21 04:30N 35°16' E 139°47'611.2
2017-Oct-21 04:00N 35°10' E 139°46'511.0
2017-Oct-21 03:30N 35°05' E 139°44'510.6
2017-Oct-21 03:00N 35°01' E 139°39'612.3
2017-Oct-21 02:30N 34°58' E 139°33'  
2017-Oct-18 03:21N 34°58' E 139°26'411.0
2017-Oct-18 02:58N 35°00' E 139°30'612.2
2017-Oct-18 02:30N 35°04' E 139°36'713.6
2017-Oct-18 02:00N 35°08' E 139°43'713.4
2017-Oct-18 01:30N 35°14' E 139°46'611.9
2017-Oct-18 01:01N 35°19' E 139°43'510.9
2017-Oct-18 00:30N 35°24' E 139°41'0 0.1
2017-Oct-18 00:00N 35°24' E 139°41'0 0.0
2017-Oct-17 23:27N 35°24' E 139°41'1 2.6
2017-Oct-17 23:00N 35°23' E 139°40'0 0.2
2017-Oct-17 22:30N 35°23' E 139°40'0 0.1
2017-Oct-17 22:00N 35°23' E 139°40'0 0.0
2017-Oct-17 21:30N 35°23' E 139°40'0 0.0
2017-Oct-17 21:00N 35°23' E 139°40'0 0.0
2017-Oct-17 20:30N 35°23' E 139°40'0 0.0
2017-Oct-17 20:00N 35°23' E 139°40'0 0.0
2017-Oct-17 19:30N 35°23' E 139°40'0 0.1
2017-Oct-17 19:00N 35°23' E 139°40'0 0.0
2017-Oct-17 18:30N 35°23' E 139°40'0 0.0
2017-Oct-17 18:00N 35°23' E 139°40'0 0.0
2017-Oct-17 17:30N 35°23' E 139°40'0 0.0
2017-Oct-17 17:00N 35°23' E 139°40'0 0.1
2017-Oct-17 16:30N 35°23' E 139°40'0 0.0
2017-Oct-17 16:00N 35°23' E 139°40'0 0.0
2017-Oct-17 15:30N 35°23' E 139°40'0 0.0
2017-Oct-17 15:00N 35°23' E 139°40'0 0.0
2017-Oct-17 14:30N 35°23' E 139°40'0 0.0
2017-Oct-17 14:00N 35°23' E 139°40'0 0.0
2017-Oct-17 13:30N 35°23' E 139°40'0 0.0
2017-Oct-17 13:00N 35°23' E 139°40'0 0.0
2017-Oct-17 12:27N 35°23' E 139°40'0 0.0
2017-Oct-17 11:57N 35°23' E 139°40'0 0.0
2017-Oct-17 11:30N 35°23' E 139°40'0 0.0
2017-Oct-17 11:00N 35°23' E 139°40'0 0.0
2017-Oct-17 10:27N 35°23' E 139°40'0 0.1
2017-Oct-17 10:00N 35°23' E 139°40'0 0.0
2017-Oct-17 09:30N 35°23' E 139°40'0 0.0
2017-Oct-17 09:00N 35°23' E 139°40'0 0.0
2017-Oct-17 08:30N 35°23' E 139°40'0 0.0
2017-Oct-17 08:00N 35°23' E 139°40'0 0.0
2017-Oct-17 07:30N 35°23' E 139°40'0 0.0
2017-Oct-17 07:00N 35°23' E 139°40'0 0.0
2017-Oct-17 06:30N 35°23' E 139°40'0 0.0
2017-Oct-17 06:00N 35°23' E 139°40'0 0.0
2017-Oct-17 05:30N 35°23' E 139°40'0 0.0
2017-Oct-17 04:57N 35°23' E 139°40'0 0.0
2017-Oct-17 04:30N 35°23' E 139°40'0 0.1
2017-Oct-17 04:00N 35°23' E 139°40'1 2.3
2017-Oct-17 03:31N 35°23' E 139°41'3 6.1
2017-Oct-17 03:00N 35°20' E 139°43'5 9.9
2017-Oct-17 02:30N 35°16' E 139°46'510.0
2017-Oct-17 02:00N 35°11' E 139°46'5 9.4
2017-Oct-17 01:30N 35°07' E 139°44'5 9.8
2017-Oct-17 01:00N 35°03' E 139°41'510.5
2017-Oct-17 00:30N 34°60' E 139°35'611.6
2017-Oct-17 00:00N 34°57' E 139°29'  
2017-Oct-14 16:28N 34°56' E 139°22'611.7
2017-Oct-14 16:00N 34°60' E 139°28'611.4
2017-Oct-14 15:30N 35°03' E 139°33'612.3
2017-Oct-14 15:00N 35°06' E 139°40'612.4
2017-Oct-14 14:30N 35°11' E 139°45'611.4
2017-Oct-14 14:00N 35°17' E 139°45'611.2
2017-Oct-14 13:30N 35°22' E 139°43'1 1.3
2017-Oct-14 12:58N 35°22' E 139°44'0 0.1
2017-Oct-14 12:25N 35°22' E 139°44'0 0.1
2017-Oct-14 11:58N 35°22' E 139°44'0 0.1
2017-Oct-14 11:28N 35°22' E 139°44'0 0.0
2017-Oct-14 10:58N 35°22' E 139°44'0 0.0
2017-Oct-14 10:28N 35°22' E 139°44'0 0.0
2017-Oct-14 09:55N 35°22' E 139°44'0 0.1
2017-Oct-14 09:25N 35°22' E 139°44'0 0.0
2017-Oct-14 08:58N 35°22' E 139°44'0 0.0
2017-Oct-14 08:28N 35°22' E 139°44'3 6.8
2017-Oct-14 08:01N 35°24' E 139°41'0 0.2
2017-Oct-14 07:29N 35°24' E 139°41'0 0.0
2017-Oct-14 06:56N 35°24' E 139°41'0 0.0
2017-Oct-14 06:29N 35°24' E 139°41'0 0.0
2017-Oct-14 05:59N 35°24' E 139°41'0 0.0
2017-Oct-14 05:29N 35°24' E 139°41'0 0.0
2017-Oct-14 05:01N 35°24' E 139°41'4 8.8
2017-Oct-14 04:31N 35°20' E 139°43'611.8
2017-Oct-14 04:00N 35°15' E 139°47'611.9
2017-Oct-14 03:31N 35°09' E 139°46'612.7
2017-Oct-14 03:00N 35°04' E 139°41'713.3
2017-Oct-14 02:31N 35°00' E 139°34'814.5
2017-Oct-14 01:57N 34°55' E 139°27'226 5.6
2017-Oct-12 09:39N 34°02' E 134°60'313.4
2017-Oct-12 09:26N 34°05' E 134°60'613.2
2017-Oct-12 08:59N 34°11' E 134°59'713.4
2017-Oct-12 08:28N 34°18' E 134°59'  

Dump ship's entire track history